Time;durP1;ratioP1;P1;durP2;ratioP2;P2;SDS_P1;SDS_P2;PMS_P1;PMS_P2;Temp;Humidity;BMP_temperature;BMP_pressure;BME280_temperature;BME280_humidity;BME280_pressure;Samples;Min_cycle;Max_cycle;Signal;HPM_P1;HPM_P2
2023/04/22 00:01:32;;;;;;;3.47;3.15;;;9.90;87.40;;;;;;5051857;28;20309;-72
2023/04/22 00:03:58;;;;;;;3.85;3.65;;;9.80;87.80;;;;;;5048453;28;20207;-73
2023/04/22 00:06:23;;;;;;;6.45;3.35;;;9.60;88.40;;;;;;5052730;28;20186;-73
2023/04/22 00:08:49;;;;;;;4.38;4.00;;;9.50;89.20;;;;;;5051559;28;20863;-73
2023/04/22 00:11:15;;;;;;;4.47;3.75;;;9.40;89.40;;;;;;5049250;28;20191;-73
2023/04/22 00:13:41;;;;;;;4.10;3.75;;;9.40;89.40;;;;;;5048284;28;20195;-72
2023/04/22 00:16:07;;;;;;;3.67;3.40;;;9.50;89.00;;;;;;5051867;28;20215;-73
2023/04/22 00:18:35;;;;;;;4.23;3.83;;;9.50;88.60;;;;;;5051813;28;20180;-71
2023/04/22 00:21:01;;;;;;;4.45;3.38;;;9.50;88.70;;;;;;5049788;28;20180;-73
2023/04/22 00:23:26;;;;;;;3.70;3.40;;;9.40;89.60;;;;;;5052898;28;20326;-73
2023/04/22 00:25:52;;;;;;;3.58;3.28;;;9.30;90.20;;;;;;5049822;28;20709;-73
2023/04/22 00:28:18;;;;;;;3.63;3.42;;;9.40;90.10;;;;;;5049343;28;20574;-72
2023/04/22 00:30:43;;;;;;;4.05;3.00;;;9.40;90.00;;;;;;5047777;28;20175;-72
2023/04/22 00:33:09;;;;;;;3.88;3.40;;;9.50;89.50;;;;;;5051688;28;20187;-72
2023/04/22 00:35:34;;;;;;;3.92;3.42;;;9.40;90.00;;;;;;5054221;28;20188;-71
2023/04/22 00:38:00;;;;;;;6.23;3.37;;;9.30;90.70;;;;;;5053085;28;20235;-72
2023/04/22 00:40:26;;;;;;;3.22;2.97;;;9.40;90.30;;;;;;5052272;28;20237;-72
2023/04/22 00:42:52;;;;;;;3.60;3.30;;;9.50;89.70;;;;;;5050678;28;20242;-72
2023/04/22 00:45:19;;;;;;;4.18;3.88;;;9.50;89.50;;;;;;5046115;28;20196;-72
2023/04/22 00:47:46;;;;;;;5.43;3.95;;;9.50;89.40;;;;;;5044938;28;20191;-73
2023/04/22 00:50:12;;;;;;;3.97;3.58;;;9.50;89.40;;;;;;5049333;28;20669;-72
2023/04/22 00:52:38;;;;;;;2.35;2.30;;;9.50;89.30;;;;;;5050089;28;20266;-72
2023/04/22 00:55:04;;;;;;;3.85;3.55;;;9.50;89.20;;;;;;5048572;28;20190;-72
2023/04/22 00:57:31;;;;;;;2.72;2.50;;;9.50;89.10;;;;;;5050143;28;20195;-72
2023/04/22 00:59:58;;;;;;;4.27;2.87;;;9.50;89.10;;;;;;5050374;28;20179;-72
2023/04/22 01:02:24;;;;;;;2.33;2.03;;;9.50;89.10;;;;;;5050029;28;20218;-72
2023/04/22 01:04:49;;;;;;;3.00;2.78;;;9.40;89.20;;;;;;5049588;28;20176;-72
2023/04/22 01:07:16;;;;;;;2.53;2.25;;;9.40;89.10;;;;;;5054079;28;20569;-72
2023/04/22 01:09:42;;;;;;;3.37;2.43;;;9.40;89.40;;;;;;5056600;28;20658;-71
2023/04/22 01:12:08;;;;;;;2.40;2.22;;;9.40;89.50;;;;;;5052644;28;20187;-72
2023/04/22 01:14:34;;;;;;;3.35;2.80;;;9.30;89.20;;;;;;5051515;28;20183;-72
2023/04/22 01:17:00;;;;;;;3.77;3.40;;;9.30;89.60;;;;;;5047668;28;21024;-72
2023/04/22 01:19:28;;;;;;;3.77;2.87;;;9.30;89.70;;;;;;5054287;28;20179;-72
2023/04/22 01:21:54;;;;;;;3.50;3.17;;;9.30;89.90;;;;;;5047137;28;20213;-72
2023/04/22 01:24:21;;;;;;;3.47;3.17;;;9.20;90.20;;;;;;5050372;28;20214;-71
2023/04/22 01:26:47;;;;;;;3.67;3.27;;;9.00;91.10;;;;;;5052878;28;20191;-72
2023/04/22 01:29:14;;;;;;;3.43;3.23;;;9.00;91.40;;;;;;5050926;28;20183;-72
2023/04/22 01:31:39;;;;;;;3.67;3.37;;;9.00;91.40;;;;;;5054729;28;20959;-72
2023/04/22 01:34:05;;;;;;;4.33;3.80;;;9.10;91.50;;;;;;5051704;28;20272;-72
2023/04/22 01:36:32;;;;;;;5.83;3.83;;;9.10;91.30;;;;;;5051453;28;20188;-71
2023/04/22 01:38:58;;;;;;;4.87;3.73;;;9.10;91.30;;;;;;5046741;28;20187;-71
2023/04/22 01:41:24;;;;;;;3.87;3.50;;;9.00;91.40;;;;;;5052003;28;20684;-71
2023/04/22 01:43:52;;;;;;;6.43;3.33;;;9.00;91.20;;;;;;5052969;28;20215;-71
2023/04/22 01:46:18;;;;;;;6.07;3.67;;;9.00;91.10;;;;;;5048184;28;20661;-72
2023/04/22 01:48:50;;;;;;;5.83;4.03;;;8.90;91.30;;;;;;5054278;28;20203;-72
2023/04/22 01:51:17;;;;;;;4.37;3.93;;;8.90;91.50;;;;;;5046965;28;20180;-72
2023/04/22 01:53:43;;;;;;;5.23;3.67;;;8.80;91.40;;;;;;5048905;28;20580;-72
2023/04/22 01:56:08;;;;;;;3.50;3.23;;;8.80;91.50;;;;;;5049470;28;20171;-72
2023/04/22 01:58:34;;;;;;;4.53;3.93;;;8.80;91.60;;;;;;5052238;28;20588;-72
2023/04/22 02:01:00;;;;;;;4.10;3.70;;;8.70;92.00;;;;;;5048502;28;20207;-72
2023/04/22 02:03:26;;;;;;;6.93;4.00;;;8.70;92.40;;;;;;5049582;28;20211;-72
2023/04/22 02:05:52;;;;;;;4.17;3.73;;;8.70;92.70;;;;;;5049175;28;20175;-72
2023/04/22 02:08:17;;;;;;;4.97;4.30;;;8.80;92.60;;;;;;5051540;28;20180;-72
2023/04/22 02:10:43;;;;;;;3.77;3.53;;;8.90;92.00;;;;;;5049778;28;20210;-72
2023/04/22 02:13:09;;;;;;;3.77;3.47;;;9.00;91.60;;;;;;5048510;28;20186;-72
2023/04/22 02:15:34;;;;;;;4.33;3.93;;;9.10;91.20;;;;;;5046474;28;20180;-72
2023/04/22 02:18:01;;;;;;;3.33;3.13;;;9.20;90.90;;;;;;5046624;28;20294;-72
2023/04/22 02:20:26;;;;;;;3.60;3.30;;;9.30;90.50;;;;;;5051233;28;20168;-71
2023/04/22 02:22:52;;;;;;;3.37;3.07;;;9.30;90.30;;;;;;5046973;28;20272;-71
2023/04/22 02:25:18;;;;;;;3.70;3.17;;;9.40;90.00;;;;;;5052106;28;20192;-71
2023/04/22 02:27:44;;;;;;;4.47;3.13;;;9.50;89.80;;;;;;5047296;28;20259;-72
2023/04/22 02:30:10;;;;;;;3.78;2.88;;;9.50;89.70;;;;;;5049484;28;20218;-72
2023/04/22 02:32:37;;;;;;;4.23;3.50;;;9.50;89.40;;;;;;5052066;28;20176;-72
2023/04/22 02:35:04;;;;;;;4.50;4.10;;;9.50;89.30;;;;;;5049487;28;20183;-72
2023/04/22 02:37:29;;;;;;;3.77;3.17;;;9.60;89.00;;;;;;5052598;28;20176;-72
2023/04/22 02:39:55;;;;;;;4.87;3.53;;;9.60;88.90;;;;;;5047459;28;20179;-72
2023/04/22 02:42:21;;;;;;;4.55;3.67;;;9.60;88.80;;;;;;5050150;28;20270;-72
2023/04/22 02:44:47;;;;;;;3.70;3.43;;;9.50;88.90;;;;;;5050521;28;20194;-72
2023/04/22 02:47:12;;;;;;;3.40;3.13;;;9.60;88.70;;;;;;5048655;28;20175;-72
2023/04/22 02:49:38;;;;;;;3.58;2.85;;;9.50;88.60;;;;;;5049123;28;20183;-72
2023/04/22 02:52:04;;;;;;;3.42;3.13;;;9.30;88.80;;;;;;5052029;28;20213;-72
2023/04/22 02:54:30;;;;;;;6.07;3.23;;;9.20;89.00;;;;;;5048333;28;20195;-72
2023/04/22 02:56:56;;;;;;;2.67;2.55;;;9.20;89.10;;;;;;5049253;28;20203;-71
2023/04/22 02:59:22;;;;;;;4.03;3.33;;;9.20;89.10;;;;;;5052056;28;20188;-72
2023/04/22 03:01:48;;;;;;;2.57;2.47;;;9.20;88.90;;;;;;5050376;28;20236;-72
2023/04/22 03:04:14;;;;;;;3.37;3.23;;;9.20;88.80;;;;;;5049825;28;20200;-72
2023/04/22 03:06:40;;;;;;;5.67;3.93;;;9.20;88.70;;;;;;5048763;28;20179;-72
2023/04/22 03:09:06;;;;;;;3.77;3.47;;;9.20;89.00;;;;;;5052761;28;20194;-71
2023/04/22 03:11:31;;;;;;;5.23;3.20;;;9.10;89.30;;;;;;5051108;28;20678;-73
2023/04/22 03:13:57;;;;;;;3.93;3.63;;;9.10;89.60;;;;;;5048235;28;20182;-72
2023/04/22 03:16:23;;;;;;;3.70;3.33;;;9.00;89.60;;;;;;5053746;28;20187;-72
2023/04/22 03:18:49;;;;;;;3.53;3.22;;;9.00;89.90;;;;;;5050445;28;20236;-72
2023/04/22 03:21:15;;;;;;;4.17;3.77;;;8.90;90.40;;;;;;5054539;28;20183;-73
2023/04/22 03:23:40;;;;;;;4.43;3.35;;;8.90;90.30;;;;;;5052048;28;20218;-73
2023/04/22 03:26:06;;;;;;;3.60;3.30;;;8.80;90.60;;;;;;5050571;28;20736;-73
2023/04/22 03:28:32;;;;;;;3.73;3.50;;;8.70;90.80;;;;;;5053928;28;20190;-73
2023/04/22 03:30:57;;;;;;;3.53;3.33;;;8.80;90.80;;;;;;5049934;28;20179;-73
2023/04/22 03:33:23;;;;;;;3.47;3.17;;;8.80;90.60;;;;;;5044630;28;21003;-71
2023/04/22 03:35:49;;;;;;;3.67;3.40;;;8.90;90.70;;;;;;5050833;28;20215;-71
2023/04/22 03:38:15;;;;;;;3.33;3.10;;;8.90;90.60;;;;;;5044199;28;20330;-71
2023/04/22 03:40:42;;;;;;;3.63;3.30;;;8.80;90.40;;;;;;5047626;28;20199;-71
2023/04/22 03:43:07;;;;;;;3.53;3.27;;;8.80;90.60;;;;;;5044400;28;20215;-71
2023/04/22 03:45:33;;;;;;;4.80;3.60;;;8.80;90.70;;;;;;5050869;28;20171;-71
2023/04/22 03:47:59;;;;;;;3.57;3.27;;;8.70;91.30;;;;;;5044986;28;20314;-71
2023/04/22 03:50:25;;;;;;;3.27;2.97;;;8.70;91.10;;;;;;5047787;28;20682;-71
2023/04/22 03:52:50;;;;;;;3.00;2.80;;;8.70;91.00;;;;;;5047254;28;20572;-72
2023/04/22 03:55:16;;;;;;;3.80;3.00;;;8.80;90.90;;;;;;5046343;28;20209;-71
2023/04/22 03:57:41;;;;;;;3.93;3.50;;;8.80;90.90;;;;;;5050648;28;20282;-72
2023/04/22 04:00:07;;;;;;;3.47;2.97;;;8.70;91.10;;;;;;5046465;28;20179;-72
2023/04/22 04:02:33;;;;;;;3.50;3.30;;;8.50;91.70;;;;;;5046475;28;20216;-74
2023/04/22 04:04:59;;;;;;;2.57;2.37;;;8.50;91.70;;;;;;5049400;28;20650;-71
2023/04/22 04:07:24;;;;;;;3.10;2.90;;;8.60;91.40;;;;;;5044813;28;20237;-72
2023/04/22 04:09:50;;;;;;;4.57;3.57;;;8.70;91.10;;;;;;5045758;28;20179;-72
2023/04/22 04:12:16;;;;;;;3.60;3.30;;;8.70;90.70;;;;;;5046590;28;20440;-72
2023/04/22 04:14:41;;;;;;;3.93;3.57;;;8.70;90.90;;;;;;5046859;28;20657;-72
2023/04/22 04:17:12;;;;;;;3.50;3.20;;;8.80;90.90;;;;;;5049186;28;20184;-72
2023/04/22 04:19:38;;;;;;;3.17;2.87;;;8.90;90.90;;;;;;5052084;28;20188;-72
2023/04/22 04:22:04;;;;;;;3.03;2.78;;;9.00;90.70;;;;;;5047241;28;20176;-72
2023/04/22 04:24:30;;;;;;;2.93;2.63;;;9.00;90.40;;;;;;5043716;28;20292;-72
2023/04/22 04:26:56;;;;;;;4.27;3.27;;;9.10;90.10;;;;;;5048200;28;20206;-71
2023/04/22 04:29:23;;;;;;;3.50;3.20;;;9.20;89.70;;;;;;5046209;28;20184;-72
2023/04/22 04:31:48;;;;;;;3.27;3.07;;;9.20;89.50;;;;;;5053294;28;20543;-72
2023/04/22 04:34:14;;;;;;;3.47;3.10;;;9.30;89.40;;;;;;5056993;28;20237;-72
2023/04/22 04:36:40;;;;;;;3.53;2.83;;;9.30;89.30;;;;;;5052296;28;20674;-71
2023/04/22 04:39:07;;;;;;;4.43;3.60;;;9.40;89.20;;;;;;5045976;28;20192;-72
2023/04/22 04:41:32;;;;;;;4.82;3.80;;;9.50;89.10;;;;;;5052405;28;20182;-73
2023/04/22 04:44:01;;;;;;;3.75;3.20;;;9.50;88.90;;;;;;5047041;28;20231;-73
2023/04/22 04:46:31;;;;;;;5.57;3.30;;;9.60;88.80;;;;;;5047631;28;20180;-72
2023/04/22 04:48:57;;;;;;;3.50;3.30;;;9.70;88.70;;;;;;5047699;28;20184;-73
2023/04/22 04:51:23;;;;;;;4.15;3.80;;;9.70;88.80;;;;;;5048934;28;20178;-73
2023/04/22 04:53:49;;;;;;;4.17;3.83;;;9.70;88.70;;;;;;5054745;28;20609;-74
2023/04/22 04:56:15;;;;;;;6.03;4.68;;;9.70;89.20;;;;;;5052221;28;20188;-73
2023/04/22 04:58:41;;;;;;;4.50;4.10;;;9.70;89.10;;;;;;5052569;28;20179;-72
2023/04/22 05:01:07;;;;;;;4.65;4.25;;;9.70;89.00;;;;;;5049543;28;20182;-73
2023/04/22 05:03:33;;;;;;;4.50;3.95;;;9.70;89.20;;;;;;5050365;28;20290;-73
2023/04/22 05:05:58;;;;;;;4.72;3.90;;;9.80;89.20;;;;;;5052976;28;20182;-72
2023/04/22 05:08:24;;;;;;;4.47;4.05;;;9.80;89.20;;;;;;5049499;28;20186;-72
2023/04/22 05:10:50;;;;;;;6.55;5.07;;;9.80;88.90;;;;;;5053611;28;20195;-73
2023/04/22 05:13:15;;;;;;;6.82;4.78;;;9.90;88.60;;;;;;5050920;28;20660;-73
2023/04/22 05:15:41;;;;;;;4.88;4.40;;;9.90;88.60;;;;;;5051459;28;20206;-73
2023/04/22 05:18:07;;;;;;;10.25;5.63;;;10.00;88.30;;;;;;5047254;28;20233;-73
2023/04/22 05:20:33;;;;;;;9.45;5.15;;;10.00;88.20;;;;;;5050096;28;20187;-73
2023/04/22 05:22:58;;;;;;;5.15;4.20;;;10.10;87.90;;;;;;5048256;28;20210;-73
2023/04/22 05:25:24;;;;;;;9.13;5.07;;;10.10;87.90;;;;;;5047827;28;20199;-73
2023/04/22 05:27:50;;;;;;;6.35;4.95;;;10.20;88.30;;;;;;5050631;28;20183;-73
2023/04/22 05:30:15;;;;;;;5.28;4.78;;;10.20;88.20;;;;;;5049694;28;20222;-73
2023/04/22 05:32:41;;;;;;;7.78;5.43;;;10.20;87.50;;;;;;5048661;28;20183;-73
2023/04/22 05:35:08;;;;;;;6.28;4.75;;;10.30;87.10;;;;;;5047765;28;20572;-72
2023/04/22 05:37:33;;;;;;;5.70;4.88;;;10.30;87.30;;;;;;5045811;28;20186;-73
2023/04/22 05:39:59;;;;;;;6.63;5.38;;;10.40;87.30;;;;;;5045690;28;20255;-73
2023/04/22 05:42:25;;;;;;;6.07;4.75;;;10.40;86.90;;;;;;5049740;28;20211;-73
2023/04/22 05:44:50;;;;;;;7.43;4.38;;;10.40;86.80;;;;;;5047803;28;20229;-73
2023/04/22 05:47:16;;;;;;;5.18;4.78;;;10.50;86.00;;;;;;5051705;28;20184;-73
2023/04/22 05:49:42;;;;;;;8.35;4.97;;;10.50;86.10;;;;;;5048088;28;20241;-74
2023/04/22 05:52:07;;;;;;;6.00;5.00;;;10.50;86.20;;;;;;5050776;28;20185;-73
2023/04/22 05:54:33;;;;;;;5.28;4.68;;;10.60;86.00;;;;;;5045188;28;20232;-73
2023/04/22 05:56:59;;;;;;;4.78;4.35;;;10.60;85.70;;;;;;5049921;28;20644;-73
2023/04/22 05:59:25;;;;;;;5.88;4.40;;;10.70;85.40;;;;;;5049076;28;20188;-73
2023/04/22 06:01:51;;;;;;;4.57;4.20;;;10.80;85.40;;;;;;5051885;28;20184;-73
2023/04/22 06:04:18;;;;;;;8.68;5.00;;;10.90;85.10;;;;;;5048869;28;20660;-72
2023/04/22 06:06:43;;;;;;;5.10;4.15;;;10.90;84.80;;;;;;5049092;28;20237;-73
2023/04/22 06:09:09;;;;;;;6.43;4.72;;;11.00;84.10;;;;;;5051712;28;20191;-73
2023/04/22 06:11:35;;;;;;;3.95;3.67;;;11.00;84.20;;;;;;5048002;28;20186;-72
2023/04/22 06:14:01;;;;;;;5.15;4.05;;;11.10;84.10;;;;;;5048573;28;20671;-72
2023/04/22 06:16:26;;;;;;;4.57;4.15;;;11.20;83.90;;;;;;5045133;28;20230;-72
2023/04/22 06:18:52;;;;;;;8.63;5.07;;;11.20;84.20;;;;;;5048515;28;20210;-72
2023/04/22 06:21:19;;;;;;;5.00;4.40;;;11.40;84.10;;;;;;5051030;28;20202;-72
2023/04/22 06:23:45;;;;;;;4.72;4.18;;;11.40;83.90;;;;;;5047570;28;20208;-71
2023/04/22 06:26:11;;;;;;;10.30;4.18;;;11.40;83.50;;;;;;5050620;28;20176;-72
2023/04/22 06:28:37;;;;;;;8.60;4.63;;;11.50;83.50;;;;;;5046618;28;20195;-72
2023/04/22 06:31:03;;;;;;;5.70;3.97;;;11.40;83.30;;;;;;5051428;28;20203;-71
2023/04/22 06:33:28;;;;;;;4.82;3.88;;;11.40;83.30;;;;;;5044890;28;20219;-72
2023/04/22 06:35:54;;;;;;;3.95;3.67;;;11.40;83.30;;;;;;5043432;28;20176;-71
2023/04/22 06:38:20;;;;;;;5.75;3.97;;;11.50;83.20;;;;;;5043205;28;20265;-75
2023/04/22 06:40:45;;;;;;;3.90;3.58;;;11.60;82.90;;;;;;5044108;28;20187;-77
2023/04/22 06:43:11;;;;;;;4.45;4.05;;;11.70;82.80;;;;;;5051335;28;20487;-73
2023/04/22 06:45:37;;;;;;;4.10;3.80;;;11.80;82.50;;;;;;5047539;28;20829;-73
2023/04/22 06:48:02;;;;;;;3.33;3.10;;;11.90;82.20;;;;;;5049965;28;20183;-74
2023/04/22 06:50:28;;;;;;;3.80;3.50;;;12.00;81.90;;;;;;5053905;28;20282;-73
2023/04/22 06:52:54;;;;;;;4.95;4.47;;;12.10;81.40;;;;;;5048920;28;20716;-72
2023/04/22 06:55:20;;;;;;;3.35;3.15;;;12.20;81.60;;;;;;5052091;28;20687;-73
2023/04/22 06:57:46;;;;;;;4.15;3.80;;;12.30;81.50;;;;;;5050758;28;20203;-73
2023/04/22 07:00:12;;;;;;;4.18;3.55;;;12.40;81.40;;;;;;5050391;28;20322;-72
2023/04/22 07:02:38;;;;;;;4.30;3.92;;;12.40;81.20;;;;;;5048965;28;20203;-72
2023/04/22 07:05:04;;;;;;;4.88;3.92;;;12.50;80.60;;;;;;5052109;28;20186;-72
2023/04/22 07:07:29;;;;;;;4.18;3.75;;;12.60;80.10;;;;;;5051327;28;20634;-71
2023/04/22 07:09:55;;;;;;;4.47;4.07;;;12.70;80.30;;;;;;5053799;28;20181;-71
2023/04/22 07:12:21;;;;;;;4.03;3.72;;;12.80;79.90;;;;;;5050905;28;20186;-74
2023/04/22 07:14:48;;;;;;;4.22;3.85;;;12.90;80.10;;;;;;5046065;28;20176;-72
2023/04/22 07:17:14;;;;;;;3.63;3.33;;;13.00;79.50;;;;;;5051939;28;20168;-71
2023/04/22 07:19:40;;;;;;;2.88;2.75;;;13.10;79.50;;;;;;5046506;28;20642;-71
2023/04/22 07:22:05;;;;;;;3.33;3.13;;;13.20;79.20;;;;;;5046714;28;20187;-71
2023/04/22 07:24:31;;;;;;;3.95;3.65;;;13.30;78.50;;;;;;5051530;28;20771;-72
2023/04/22 07:26:57;;;;;;;4.10;3.70;;;13.40;78.20;;;;;;5048653;28;20189;-71
2023/04/22 07:29:23;;;;;;;3.88;3.58;;;13.60;78.00;;;;;;5048766;28;20185;-72
2023/04/22 07:31:49;;;;;;;7.85;3.83;;;13.60;76.90;;;;;;5042769;28;20184;-72
2023/04/22 07:34:16;;;;;;;9.07;4.15;;;13.70;77.30;;;;;;5048652;28;20250;-72
2023/04/22 07:36:41;;;;;;;4.18;3.63;;;13.80;78.30;;;;;;5050390;28;20649;-72
2023/04/22 07:39:08;;;;;;;6.53;4.47;;;13.80;77.40;;;;;;5047111;28;20174;-72
2023/04/22 07:41:34;;;;;;;3.95;2.75;;;13.80;76.80;;;;;;5049880;28;20180;-72
2023/04/22 07:44:01;;;;;;;3.33;3.13;;;13.90;76.40;;;;;;5047856;28;20299;-72
2023/04/22 07:46:27;;;;;;;5.85;3.42;;;14.00;76.10;;;;;;5050507;28;20186;-71
2023/04/22 07:48:53;;;;;;;2.28;2.17;;;14.00;77.00;;;;;;5048169;28;20176;-72
2023/04/22 07:51:19;;;;;;;3.00;2.78;;;14.10;76.90;;;;;;5045730;28;20190;-72
2023/04/22 07:53:45;;;;;;;2.63;2.47;;;14.20;75.60;;;;;;5051525;28;20763;-72
2023/04/22 07:56:11;;;;;;;2.50;2.35;;;14.30;75.20;;;;;;5046202;28;20769;-72
2023/04/22 07:58:37;;;;;;;3.38;2.42;;;14.40;74.40;;;;;;5051368;28;20176;-72
2023/04/22 08:01:03;;;;;;;2.42;2.33;;;14.50;73.70;;;;;;5053340;28;20202;-73
2023/04/22 08:03:28;;;;;;;2.17;1.98;;;14.50;73.10;;;;;;5051217;28;20596;-72
2023/04/22 08:05:57;;;;;;;2.97;2.67;;;14.60;73.80;;;;;;5051615;28;20263;-73
2023/04/22 08:08:23;;;;;;;2.33;2.13;;;14.70;72.40;;;;;;5049321;28;20188;-71
2023/04/22 08:10:48;;;;;;;2.63;2.42;;;14.70;72.00;;;;;;5081753;28;20648;-71
2023/04/22 08:13:14;;;;;;;2.92;2.72;;;14.80;72.30;;;;;;5050760;28;20245;-71
2023/04/22 08:15:40;;;;;;;2.65;2.55;;;14.70;72.70;;;;;;5055004;28;20661;-71
2023/04/22 08:18:06;;;;;;;2.20;2.10;;;14.80;72.30;;;;;;5052133;28;20640;-71
2023/04/22 08:20:31;;;;;;;2.40;2.30;;;14.90;72.50;;;;;;5054977;28;20266;-71
2023/04/22 08:22:59;;;;;;;2.20;2.10;;;15.10;72.90;;;;;;5053617;28;20207;-72
2023/04/22 08:25:25;;;;;;;2.28;2.17;;;15.20;72.30;;;;;;5050925;28;20179;-71
2023/04/22 08:27:51;;;;;;;4.72;2.35;;;15.40;72.10;;;;;;5050596;28;20175;-71
2023/04/22 08:30:17;;;;;;;1.88;1.73;;;15.50;71.40;;;;;;5052958;28;20191;-72
2023/04/22 08:32:43;;;;;;;3.33;2.38;;;15.70;70.30;;;;;;5049699;28;20215;-70
2023/04/22 08:35:08;;;;;;;2.95;2.28;;;15.90;70.20;;;;;;5054347;28;20203;-72
2023/04/22 08:37:34;;;;;;;2.53;2.13;;;16.00;69.90;;;;;;5050616;28;20191;-72
2023/04/22 08:40:00;;;;;;;6.72;2.25;;;16.20;69.20;;;;;;5051340;28;20179;-72
2023/04/22 08:42:26;;;;;;;2.33;2.20;;;16.40;68.80;;;;;;5049129;28;20575;-72
2023/04/22 08:44:53;;;;;;;1.88;1.88;;;16.30;67.30;;;;;;5046497;28;21167;-72
2023/04/22 08:47:20;;;;;;;1.80;1.80;;;16.50;68.00;;;;;;5052766;28;20180;-72
2023/04/22 08:49:46;;;;;;;2.30;2.20;;;16.60;67.60;;;;;;5051247;28;20881;-72
2023/04/22 08:52:14;;;;;;;2.20;2.10;;;16.80;67.50;;;;;;5050103;28;20180;-72
2023/04/22 08:54:40;;;;;;;2.35;2.15;;;16.70;66.50;;;;;;5049536;28;20195;-71
2023/04/22 08:57:07;;;;;;;2.55;2.35;;;16.90;66.30;;;;;;5050450;28;20287;-72
2023/04/22 08:59:34;;;;;;;2.55;2.47;;;16.90;66.10;;;;;;5047859;28;20226;-74
2023/04/22 09:02:01;;;;;;;2.55;2.35;;;17.10;65.60;;;;;;5051167;28;20184;-72
2023/04/22 09:04:27;;;;;;;3.33;2.22;;;17.10;66.00;;;;;;5050423;28;20227;-70
2023/04/22 09:06:53;;;;;;;2.40;2.30;;;17.30;65.90;;;;;;5053954;28;20178;-71
2023/04/22 09:09:19;;;;;;;3.35;2.28;;;17.40;64.60;;;;;;5050145;28;20571;-71
2023/04/22 09:11:45;;;;;;;2.97;2.03;;;17.40;65.10;;;;;;5050397;28;20179;-71
2023/04/22 09:14:10;;;;;;;2.03;1.92;;;17.70;65.50;;;;;;5051822;28;20264;-71
2023/04/22 09:16:45;;;;;;;2.17;2.17;;;18.00;64.70;;;;;;5052115;28;20229;-73
2023/04/22 09:19:12;;;;;;;2.70;1.95;;;18.60;63.70;;;;;;5045740;28;20179;-73
2023/04/22 09:21:39;;;;;;;2.15;2.03;;;19.10;62.70;;;;;;5050095;28;20272;-72
2023/04/22 09:24:08;;;;;;;4.18;2.20;;;19.80;61.00;;;;;;5051873;28;20218;-72
2023/04/22 09:26:37;;;;;;;8.55;2.25;;;20.50;60.20;;;;;;5050788;28;20270;-73
2023/04/22 09:29:08;;;;;;;2.35;2.15;;;21.40;59.00;;;;;;5053275;28;20171;-73
2023/04/22 09:31:36;;;;;;;2.58;1.85;;;22.00;55.80;;;;;;5053249;28;20172;-72
2023/04/22 09:34:03;;;;;;;1.67;1.67;;;22.90;55.70;;;;;;5047987;28;20565;-72
2023/04/22 09:36:33;;;;;;;2.58;1.73;;;24.00;54.10;;;;;;5049097;28;20199;-72
2023/04/22 09:39:03;;;;;;;2.45;1.95;;;25.00;50.80;;;;;;5047310;28;20180;-73
2023/04/22 09:41:32;;;;;;;2.17;1.58;;;25.70;50.50;;;;;;5047382;28;20514;-73
2023/04/22 09:43:59;;;;;;;5.13;1.90;;;26.40;49.40;;;;;;5049589;28;20229;-73
2023/04/22 09:46:26;;;;;;;2.55;2.30;;;27.00;48.20;;;;;;5051602;28;20700;-73
2023/04/22 09:48:54;;;;;;;1.80;1.67;;;27.50;47.30;;;;;;5046603;28;20198;-72
2023/04/22 09:51:21;;;;;;;5.03;2.15;;;27.60;45.70;;;;;;5051583;28;20259;-71
2023/04/22 09:54:02;;;;;;;4.63;1.95;;;27.70;46.60;;;;;;5055123;28;20198;-72
2023/04/22 09:56:41;;;;;;;1.92;1.83;;;27.80;46.10;;;;;;5048417;28;20176;-72
2023/04/22 09:59:07;;;;;;;6.47;2.03;;;27.20;45.80;;;;;;5048409;28;20168;-73
2023/04/22 10:01:40;;;;;;;1.65;1.55;;;26.70;47.80;;;;;;5054847;28;20175;-72
2023/04/22 10:04:10;;;;;;;1.10;1.10;;;26.70;47.10;;;;;;5051848;28;20206;-73
2023/04/22 10:06:36;;;;;;;0.93;0.93;;;27.10;47.20;;;;;;5054424;28;20203;-71
2023/04/22 10:09:03;;;;;;;1.15;0.80;;;27.40;47.80;;;;;;5052798;28;20218;-71
2023/04/22 10:11:31;;;;;;;2.75;0.60;;;27.60;45.80;;;;;;5049318;28;20305;-72
2023/04/22 10:13:57;;;;;;;0.90;0.90;;;27.50;46.40;;;;;;5051195;28;20198;-72
2023/04/22 10:16:25;;;;;;;2.95;1.00;;;26.80;48.20;;;;;;5054146;28;20204;-71
2023/04/22 10:18:55;;;;;;;2.00;0.77;;;26.50;46.80;;;;;;5052806;28;20187;-71
2023/04/22 10:21:24;;;;;;;0.90;0.80;;;26.80;47.50;;;;;;5052332;28;20178;-72
2023/04/22 10:23:50;;;;;;;1.17;1.05;;;27.30;46.60;;;;;;5054705;28;20292;-71
2023/04/22 10:26:56;;;;;;;1.00;0.88;;;27.80;45.40;;;;;;5049320;28;20731;-71
2023/04/22 10:29:22;;;;;;;0.50;0.50;;;28.60;43.60;;;;;;5052342;28;20206;-71
2023/04/22 10:31:57;;;;;;;0.50;0.50;;;29.20;43.60;;;;;;5055037;28;20592;-72
2023/04/22 10:34:23;;;;;;;1.90;0.88;;;29.50;44.50;;;;;;5048318;28;20210;-71
2023/04/22 10:36:53;;;;;;;0.68;0.68;;;29.80;43.60;;;;;;5054848;28;20225;-71
2023/04/22 10:39:20;;;;;;;0.65;0.65;;;30.20;43.40;;;;;;5048999;28;20700;-71
2023/04/22 10:42:06;;;;;;;0.50;0.50;;;30.50;42.00;;;;;;5053006;28;20651;-71
2023/04/22 10:44:52;;;;;;;0.98;0.60;;;30.70;42.10;;;;;;5053366;28;20214;-72
2023/04/22 10:47:35;;;;;;;0.55;0.55;;;31.10;41.30;;;;;;5054286;28;20282;-71
2023/04/22 10:50:11;;;;;;;0.82;0.82;;;31.40;41.20;;;;;;5051535;28;20648;-71
2023/04/22 10:52:38;;;;;;;0.73;0.73;;;31.80;40.70;;;;;;5051569;28;20175;-71
2023/04/22 10:55:04;;;;;;;1.75;1.00;;;32.20;40.50;;;;;;5052481;28;20652;-73
2023/04/22 10:57:41;;;;;;;0.90;0.90;;;32.60;39.60;;;;;;5052052;28;20187;-72
2023/04/22 11:00:22;;;;;;;1.08;0.82;;;32.70;40.00;;;;;;5053284;28;20190;-72
2023/04/22 11:03:09;;;;;;;0.77;0.77;;;33.00;40.10;;;;;;5049858;28;20206;-72
2023/04/22 11:05:35;;;;;;;0.80;0.80;;;33.40;39.20;;;;;;5052879;28;20186;-72
2023/04/22 11:08:27;;;;;;;1.95;1.02;;;33.80;39.70;;;;;;5052047;28;20235;-72
2023/04/22 11:11:07;;;;;;;1.00;0.82;;;34.20;39.00;;;;;;5049741;28;20180;-74
2023/04/22 11:13:33;;;;;;;5.00;1.15;;;34.50;39.50;;;;;;5052423;28;20174;-73
2023/04/22 11:15:59;;;;;;;2.40;0.75;;;34.50;40.40;;;;;;5050838;28;20174;-74
2023/04/22 11:18:26;;;;;;;2.17;0.95;;;34.80;39.50;;;;;;5050561;28;20206;-74
2023/04/22 11:20:52;;;;;;;0.65;0.65;;;34.90;40.40;;;;;;5050580;28;20174;-74
2023/04/22 11:23:26;;;;;;;1.95;0.65;;;35.00;38.80;;;;;;5046216;28;20232;-78
2023/04/22 11:25:57;;;;;;;0.70;0.70;;;35.30;39.10;;;;;;5051373;28;20179;-78
2023/04/22 11:28:23;;;;;;;1.95;0.60;;;35.40;41.00;;;;;;5047279;28;20179;-77
2023/04/22 11:30:50;;;;;;;1.95;0.60;;;35.50;37.90;;;;;;5047310;28;20186;-75
2023/04/22 11:33:16;;;;;;;0.55;0.55;;;35.40;39.20;;;;;;5050378;28;20291;-76
2023/04/22 11:35:42;;;;;;;1.25;0.50;;;35.40;41.80;;;;;;5052595;28;20721;-76
2023/04/22 11:38:08;;;;;;;0.85;0.80;;;35.10;40.50;;;;;;5051806;28;20272;-76
2023/04/22 11:40:39;;;;;;;0.77;0.77;;;35.00;41.30;;;;;;5048476;28;20187;-75
2023/04/22 11:43:06;;;;;;;0.73;0.45;;;34.90;40.90;;;;;;5058112;28;20218;-75
2023/04/22 11:45:34;;;;;;;0.43;0.43;;;34.60;41.00;;;;;;5056356;28;20202;-75
2023/04/22 11:48:01;;;;;;;0.52;0.52;;;34.60;41.40;;;;;;5054334;28;20205;-75
2023/04/22 11:50:33;;;;;;;0.60;0.60;;;34.40;42.60;;;;;;5053949;28;20182;-76
2023/04/22 11:53:01;;;;;;;1.45;0.63;;;34.30;41.50;;;;;;5055214;28;20193;-75
2023/04/22 11:55:29;;;;;;;0.80;0.80;;;34.30;40.80;;;;;;5057214;28;20277;-76
2023/04/22 11:58:00;;;;;;;0.70;0.70;;;34.20;40.60;;;;;;5050933;28;20183;-73
2023/04/22 12:00:39;;;;;;;2.92;0.93;;;34.40;40.40;;;;;;5055628;28;20258;-73
2023/04/22 12:03:18;;;;;;;0.75;0.75;;;34.40;40.60;;;;;;5053101;28;20217;-73
2023/04/22 12:05:46;;;;;;;1.48;0.65;;;34.30;41.00;;;;;;5054579;28;20179;-73
2023/04/22 12:08:17;;;;;;;0.90;0.90;;;34.30;41.80;;;;;;5053766;28;20172;-74
2023/04/22 12:10:51;;;;;;;0.70;0.70;;;34.10;42.00;;;;;;5053470;28;20194;-73
2023/04/22 12:13:21;;;;;;;0.95;0.95;;;34.10;42.80;;;;;;5056466;28;20177;-73
2023/04/22 12:15:48;;;;;;;0.80;0.80;;;34.10;40.20;;;;;;5052676;28;20187;-71
2023/04/22 12:18:13;;;;;;;0.80;0.80;;;34.00;41.10;;;;;;5057560;28;20221;-73
2023/04/22 12:20:40;;;;;;;0.70;0.68;;;34.20;40.70;;;;;;5052157;28;20211;-73
2023/04/22 12:23:15;;;;;;;3.00;0.73;;;34.10;41.10;;;;;;5056508;28;20719;-73
2023/04/22 12:25:42;;;;;;;0.70;0.70;;;34.30;41.50;;;;;;5048726;28;20193;-73
2023/04/22 12:28:09;;;;;;;1.13;0.95;;;34.30;40.00;;;;;;5054405;28;20365;-72
2023/04/22 12:30:35;;;;;;;0.90;0.90;;;34.10;41.40;;;;;;5054800;28;20182;-72
2023/04/22 12:33:00;;;;;;;0.75;0.75;;;34.00;42.00;;;;;;5053595;28;20217;-72
2023/04/22 12:35:26;;;;;;;0.85;0.70;;;33.60;41.00;;;;;;5051671;28;20254;-71
2023/04/22 12:37:52;;;;;;;0.60;0.60;;;33.20;41.30;;;;;;5050980;28;20507;-72
2023/04/22 12:40:17;;;;;;;0.65;0.65;;;33.10;41.00;;;;;;5049454;28;20191;-72
2023/04/22 12:42:43;;;;;;;0.77;0.75;;;33.30;42.40;;;;;;5050082;28;20211;-71
2023/04/22 12:45:09;;;;;;;1.70;1.52;;;33.40;41.20;;;;;;5052467;28;20187;-70
2023/04/22 12:47:35;;;;;;;2.55;1.23;;;33.60;41.70;;;;;;5052725;28;20183;-72
2023/04/22 12:50:05;;;;;;;1.27;0.80;;;33.70;41.00;;;;;;5049662;28;20186;-72